EmailTwitter


Observations de surface / Québec / CYND

Régions: Québec | Canada | États-Unis | Europe | France | UK | Ailleurs
Station
Affichage
Infos & localisation pour CYND | Aide pour décoder les METARs

Observations prises le 2018-02-23 à 20H00 UTC à OTTAWA GATINEAU, QB (CYND)

Etat du ciel: couvert.

Obstacle(s) à la visibilité: faible pluie verglaçante et brume.

Température: -3.0 Celsius

Point de rosée: -5.0 Celsius

Humidité relative: 86%

Facteur vent: -10.

Vents: Est à 26 km/h ou 14 noeuds.

Pression au niveau moyen de la mer: 102.10 kilopascals.

Calage altimétrique: 102.03 kilopascals ou 30.13 pouces de mercure.

Visibilité horizontale: 4.00 milles terrestres ou 6.40 kilomètres.

Hauteur du plafond: 579 mètres ( 1900 pieds ).

Observation METAR:

CYND 232000Z 09014KT 4SM -FZRA BR OVC019 M03/M05 A3013 RMK SC8 PRESFR SLP210=